createdAt,value
2022-11-17T00:00:08.241Z,97153.34
2022-11-17T00:02:37.410Z,97145.44
2022-11-17T00:05:06.352Z,97131.72
2022-11-17T00:07:35.603Z,97137.75
2022-11-17T00:10:03.256Z,97143.13
2022-11-17T00:12:48.244Z,97134.78
2022-11-17T00:15:15.862Z,97142.91
2022-11-17T00:17:43.746Z,97125.06
2022-11-17T00:20:29.885Z,97126.06
2022-11-17T00:22:58.836Z,97121.25
2022-11-17T00:25:26.544Z,97113.34
2022-11-17T00:27:54.374Z,97111.22
2022-11-17T00:30:43.605Z,97100.81
2022-11-17T00:33:28.784Z,97102.06
2022-11-17T00:35:56.471Z,97090.19
2022-11-17T00:38:25.463Z,97080.00
2022-11-17T00:40:53.014Z,97073.38
2022-11-17T00:43:20.653Z,97071.44
2022-11-17T00:45:48.391Z,97068.97
2022-11-17T00:48:16.743Z,97056.44
2022-11-17T00:50:44.301Z,97059.19
2022-11-17T00:53:12.299Z,97051.41
2022-11-17T00:55:41.599Z,97054.38
2022-11-17T00:58:09.190Z,97050.78
2022-11-17T01:00:36.785Z,97042.63
2022-11-17T01:03:04.338Z,97036.63
2022-11-17T01:05:33.267Z,97025.44
2022-11-17T01:08:00.941Z,97026.28
2022-11-17T01:10:28.470Z,97024.88
2022-11-17T01:12:57.374Z,97024.72
2022-11-17T01:15:24.953Z,97015.72
2022-11-17T01:17:52.620Z,97016.59
2022-11-17T01:20:20.474Z,97008.59
2022-11-17T01:22:48.060Z,96988.75
2022-11-17T01:25:15.640Z,96999.19
2022-11-17T01:27:43.201Z,96986.16
2022-11-17T01:30:13.701Z,96987.72
2022-11-17T01:32:41.242Z,96988.84
2022-11-17T01:35:09.715Z,97003.50
2022-11-17T01:37:37.315Z,96996.06
2022-11-17T01:40:05.606Z,96991.53
2022-11-17T01:42:33.184Z,96993.94
2022-11-17T01:45:03.151Z,96986.63
2022-11-17T01:47:36.665Z,96980.03
2022-11-17T01:50:08.792Z,96978.84
2022-11-17T01:52:38.450Z,96963.03
2022-11-17T01:55:08.418Z,96932.16
2022-11-17T01:57:40.567Z,96955.78
2022-11-17T02:00:10.814Z,96950.03
2022-11-17T02:02:40.864Z,96922.75
2022-11-17T02:05:20.959Z,96938.91
2022-11-17T02:07:50.932Z,96886.47
2022-11-17T02:10:18.829Z,96923.72
2022-11-17T02:12:46.876Z,96918.09
2022-11-17T02:15:14.472Z,96925.03
2022-11-17T02:17:44.720Z,96916.53
2022-11-17T02:20:14.537Z,96887.19
2022-11-17T02:23:08.513Z,96879.78
2022-11-17T02:25:46.317Z,96897.88
2022-11-17T02:28:20.620Z,96877.06
2022-11-17T02:30:56.998Z,96862.50
2022-11-17T02:33:29.751Z,96844.41
2022-11-17T02:36:03.488Z,96840.94
2022-11-17T02:38:34.198Z,96852.63
2022-11-17T02:41:06.262Z,96844.72
2022-11-17T02:43:55.667Z,96856.97
2022-11-17T02:46:24.674Z,96845.56
2022-11-17T02:48:56.205Z,96863.28
2022-11-17T02:51:25.606Z,96823.34
2022-11-17T02:53:54.850Z,96837.81
2022-11-17T02:56:22.618Z,96827.44
2022-11-17T02:58:52.801Z,96817.41
2022-11-17T03:01:46.370Z,96847.91
2022-11-17T03:04:40.863Z,96834.19
2022-11-17T03:07:22.745Z,96847.94
2022-11-17T03:09:55.239Z,96843.53
2022-11-17T03:12:25.964Z,96837.31
2022-11-17T03:14:59.878Z,96848.19
2022-11-17T03:17:31.103Z,96848.78
2022-11-17T03:20:03.259Z,96831.56
2022-11-17T03:22:34.714Z,96834.91
2022-11-17T03:25:04.516Z,96842.34
2022-11-17T03:27:33.841Z,96834.53
2022-11-17T03:30:05.955Z,96822.59
2022-11-17T03:32:37.586Z,96802.66
2022-11-17T03:35:08.158Z,96819.25
2022-11-17T03:37:37.694Z,96815.81
2022-11-17T03:40:08.695Z,96805.53
2022-11-17T03:42:38.196Z,96812.47
2022-11-17T03:45:12.500Z,96801.94
2022-11-17T03:47:40.254Z,96806.97
2022-11-17T03:50:12.071Z,96807.81
2022-11-17T03:52:39.817Z,96804.09
2022-11-17T03:55:08.937Z,96806.22
2022-11-17T03:57:39.651Z,96796.94
2022-11-17T04:00:10.959Z,96804.59
2022-11-17T04:02:41.784Z,96800.06
2022-11-17T04:05:09.904Z,96787.84
2022-11-17T04:07:40.096Z,96790.97
2022-11-17T04:10:09.771Z,96790.25
2022-11-17T04:12:55.065Z,96763.47
2022-11-17T04:15:47.150Z,96771.47
2022-11-17T04:18:15.099Z,96799.34
2022-11-17T04:20:43.172Z,96794.34
2022-11-17T04:23:13.968Z,96781.78
2022-11-17T04:26:00.995Z,96798.53
2022-11-17T04:28:38.291Z,96795.28
2022-11-17T04:31:12.497Z,96807.63
2022-11-17T04:33:41.429Z,96813.09
2022-11-17T04:36:09.948Z,96801.63
2022-11-17T04:38:37.814Z,96811.81
2022-11-17T04:41:24.897Z,96816.56
2022-11-17T04:43:52.814Z,96820.66
2022-11-17T04:46:23.095Z,96815.63
2022-11-17T04:48:51.314Z,96806.88
2022-11-17T04:51:18.861Z,96807.84
2022-11-17T04:53:47.179Z,96798.63
2022-11-17T04:56:15.048Z,96795.75
2022-11-17T04:58:43.020Z,96795.84
2022-11-17T05:01:13.888Z,96785.09
2022-11-17T05:03:44.615Z,96781.13
2022-11-17T05:06:13.475Z,96792.59
2022-11-17T05:08:41.356Z,96790.56
2022-11-17T05:11:27.613Z,96787.47
2022-11-17T05:13:55.422Z,96779.69
2022-11-17T05:16:41.476Z,96783.31
2022-11-17T05:19:12.530Z,96777.94
2022-11-17T05:21:40.147Z,96781.88
2022-11-17T05:24:07.629Z,96787.13
2022-11-17T05:26:37.174Z,96763.09
2022-11-17T05:29:06.599Z,96762.88
2022-11-17T05:31:34.725Z,96753.19
2022-11-17T05:34:03.000Z,96743.03
2022-11-17T05:36:32.278Z,96755.31
2022-11-17T05:39:03.161Z,96761.44
2022-11-17T05:41:30.826Z,96759.66
2022-11-17T05:43:59.026Z,96741.25
2022-11-17T05:46:27.092Z,96740.41
2022-11-17T05:48:54.941Z,96735.84
2022-11-17T05:51:24.293Z,96717.34
2022-11-17T05:53:53.189Z,96742.56
2022-11-17T05:56:29.497Z,96730.38
2022-11-17T05:59:01.902Z,96737.28
2022-11-17T06:01:30.326Z,96734.19
2022-11-17T06:04:00.310Z,96732.03
2022-11-17T06:06:28.527Z,96735.50
2022-11-17T06:08:57.653Z,96720.06
2022-11-17T06:11:25.214Z,96730.22
2022-11-17T06:13:52.820Z,96714.47
2022-11-17T06:16:23.936Z,96751.41
2022-11-17T06:18:54.037Z,96744.63
2022-11-17T06:21:21.738Z,96750.69
2022-11-17T06:23:49.787Z,96755.00
2022-11-17T06:26:18.772Z,96741.50
2022-11-17T06:28:48.615Z,96755.84
2022-11-17T06:31:16.706Z,96755.59
2022-11-17T06:33:44.958Z,96750.13
2022-11-17T06:36:12.742Z,96752.03
2022-11-17T06:38:40.375Z,96751.78
2022-11-17T06:41:11.811Z,96751.31
2022-11-17T06:43:41.178Z,96757.03
2022-11-17T06:46:08.871Z,96755.50
2022-11-17T06:48:36.676Z,96746.63
2022-11-17T06:51:05.927Z,96752.03
2022-11-17T06:53:35.015Z,96767.56
2022-11-17T06:56:08.138Z,96762.78
2022-11-17T06:58:37.194Z,96769.00
2022-11-17T07:01:08.226Z,96765.66
2022-11-17T07:03:37.192Z,96765.91
2022-11-17T07:06:06.048Z,96766.63
2022-11-17T07:08:34.679Z,96763.88
2022-11-17T07:11:03.623Z,96766.13
2022-11-17T07:13:33.226Z,96771.75
2022-11-17T07:16:06.417Z,96761.34
2022-11-17T07:18:34.843Z,96766.84
2022-11-17T07:21:04.233Z,96769.84
2022-11-17T07:23:32.217Z,96761.84
2022-11-17T07:26:00.360Z,96755.13
2022-11-17T07:28:28.114Z,96760.03
2022-11-17T07:30:56.396Z,96752.38
2022-11-17T07:33:25.405Z,96759.78
2022-11-17T07:35:53.052Z,96757.75
2022-11-17T07:38:20.735Z,96757.03
2022-11-17T07:40:48.396Z,96747.56
2022-11-17T07:43:16.048Z,96751.03
2022-11-17T07:45:43.701Z,96752.00
2022-11-17T07:48:11.365Z,96756.28
2022-11-17T07:50:41.586Z,96748.13
2022-11-17T07:53:09.317Z,96752.63
2022-11-17T07:55:36.985Z,96761.69
2022-11-17T07:58:04.648Z,96765.41
2022-11-17T08:00:33.690Z,96748.34
2022-11-17T08:03:01.782Z,96770.56
2022-11-17T08:05:30.729Z,96758.09
2022-11-17T08:08:00.950Z,96766.25
2022-11-17T08:10:31.262Z,96754.53
2022-11-17T08:13:00.785Z,96739.44
2022-11-17T08:15:29.551Z,96759.16
2022-11-17T08:17:58.474Z,96769.94
2022-11-17T08:20:27.708Z,96766.31
2022-11-17T08:22:55.395Z,96781.00
2022-11-17T08:25:26.539Z,96766.34
2022-11-17T08:27:56.268Z,96768.63
2022-11-17T08:30:24.394Z,96769.66
2022-11-17T08:32:53.835Z,96770.16
2022-11-17T08:35:23.690Z,96772.22
2022-11-17T08:37:51.581Z,96774.28
2022-11-17T08:40:19.427Z,96776.16
2022-11-17T08:42:57.541Z,96779.34
2022-11-17T08:45:28.291Z,96786.41
2022-11-17T08:47:57.079Z,96788.47
2022-11-17T08:50:25.141Z,96795.88
2022-11-17T08:52:53.490Z,96794.38
2022-11-17T08:55:21.262Z,96798.63
2022-11-17T08:57:50.396Z,96800.03
2022-11-17T09:00:20.604Z,96796.69
2022-11-17T09:02:48.488Z,96808.28
2022-11-17T09:05:16.548Z,96810.56
2022-11-17T09:07:44.550Z,96811.91
2022-11-17T09:10:12.901Z,96811.19
2022-11-17T09:12:40.676Z,96823.25
2022-11-17T09:15:10.982Z,96823.13
2022-11-17T09:17:40.254Z,96824.78
2022-11-17T09:20:09.002Z,96826.97
2022-11-17T09:22:36.651Z,96831.59
2022-11-17T09:25:07.537Z,96836.19
2022-11-17T09:27:39.669Z,96835.59
2022-11-17T09:30:10.672Z,96842.50
2022-11-17T09:32:38.329Z,96845.53
2022-11-17T09:35:09.323Z,96859.81
2022-11-17T09:37:37.065Z,96865.75
2022-11-17T09:40:05.199Z,96875.56
2022-11-17T09:42:38.802Z,96874.59
2022-11-17T09:45:12.997Z,96876.53
2022-11-17T09:47:44.430Z,96876.28
2022-11-17T09:50:19.725Z,96876.94
2022-11-17T09:52:55.564Z,96876.75
2022-11-17T09:55:32.694Z,96883.88
2022-11-17T09:58:08.557Z,96892.38
2022-11-17T10:00:40.062Z,96884.59
2022-11-17T10:03:13.276Z,96878.16
2022-11-17T10:05:40.899Z,96884.00
2022-11-17T10:08:10.103Z,96892.94
2022-11-17T10:10:41.034Z,96882.25
2022-11-17T10:13:15.644Z,96888.69
2022-11-17T10:15:48.458Z,96888.28
2022-11-17T10:18:17.516Z,96875.25
2022-11-17T10:20:45.653Z,96883.31
2022-11-17T10:23:14.996Z,96887.97
2022-11-17T10:25:44.676Z,96877.66
2022-11-17T10:28:25.724Z,96876.78
2022-11-17T10:30:57.259Z,96878.03
2022-11-17T10:33:35.402Z,96869.00
2022-11-17T10:36:04.633Z,96884.19
2022-11-17T10:38:33.649Z,96888.78
2022-11-17T10:41:04.002Z,96874.41
2022-11-17T10:43:34.209Z,96892.34
2022-11-17T10:46:05.760Z,96887.72
2022-11-17T10:48:35.123Z,96892.84
2022-11-17T10:51:04.468Z,96885.44
2022-11-17T10:53:43.012Z,96884.78
2022-11-17T10:56:14.867Z,96882.41
2022-11-17T10:59:03.859Z,96873.91
2022-11-17T11:01:35.204Z,96877.78
2022-11-17T11:04:04.273Z,96883.94
2022-11-17T11:06:33.327Z,96889.22
2022-11-17T11:09:02.642Z,96886.59
2022-11-17T11:11:41.177Z,96892.72
2022-11-17T11:14:16.690Z,96887.63
2022-11-17T11:16:48.522Z,96890.97
2022-11-17T11:19:18.494Z,96906.06
2022-11-17T11:22:03.761Z,96905.38
2022-11-17T11:24:38.575Z,96915.28
2022-11-17T11:27:27.989Z,96911.09
2022-11-17T11:30:02.748Z,96923.41
2022-11-17T11:32:38.781Z,96910.31
2022-11-17T11:35:28.405Z,96916.63
2022-11-17T11:38:00.675Z,96908.59
2022-11-17T11:40:30.827Z,96898.84
2022-11-17T11:42:59.603Z,96905.72
2022-11-17T11:45:43.800Z,96904.34
2022-11-17T11:48:17.695Z,96910.06
2022-11-17T11:50:53.228Z,96911.03
2022-11-17T11:53:27.604Z,96913.34
2022-11-17T11:56:06.583Z,96913.03
2022-11-17T11:58:34.255Z,96908.63
2022-11-17T12:01:05.418Z,96906.50
2022-11-17T12:03:40.821Z,96920.31
2022-11-17T12:06:33.527Z,96914.00
2022-11-17T12:09:10.382Z,96913.72
2022-11-17T12:11:57.423Z,96915.28
2022-11-17T12:14:25.242Z,96918.19
2022-11-17T12:17:02.062Z,96913.88
2022-11-17T12:19:53.345Z,96917.94
2022-11-17T12:22:53.583Z,96902.56
2022-11-17T12:25:24.531Z,96923.66
2022-11-17T12:27:53.722Z,96920.59
2022-11-17T12:30:51.717Z,96930.09
2022-11-17T12:33:19.443Z,96933.16
2022-11-17T12:36:30.146Z,96939.84
2022-11-17T12:38:59.344Z,96932.09
2022-11-17T12:42:07.251Z,96921.91
2022-11-17T12:44:49.616Z,96928.59
2022-11-17T12:47:19.222Z,96928.44
2022-11-17T12:49:56.417Z,96924.69
2022-11-17T12:52:32.266Z,96931.63
2022-11-17T12:55:04.393Z,96935.75
2022-11-17T12:57:34.287Z,96927.91
2022-11-17T13:00:09.848Z,96927.63
2022-11-17T13:03:00.451Z,96925.59
2022-11-17T13:05:30.060Z,96930.56
2022-11-17T13:08:22.428Z,96923.00
2022-11-17T13:10:50.414Z,96920.97
2022-11-17T13:13:19.822Z,96929.94
2022-11-17T13:15:50.582Z,96931.81
2022-11-17T13:18:25.436Z,96933.19
2022-11-17T13:20:53.111Z,96932.50
2022-11-17T13:23:23.680Z,96932.22
2022-11-17T13:25:52.330Z,96931.66
2022-11-17T13:28:30.926Z,96938.31
2022-11-17T13:30:59.260Z,96945.81
2022-11-17T13:33:27.474Z,96940.53
2022-11-17T13:36:10.168Z,96946.59
2022-11-17T13:38:48.075Z,96941.19
2022-11-17T13:41:16.836Z,96941.88
2022-11-17T13:43:45.699Z,96951.00
2022-11-17T13:46:13.739Z,96948.78
2022-11-17T13:48:42.400Z,96939.88
2022-11-17T13:51:24.567Z,96946.97
2022-11-17T13:53:56.167Z,96944.19
2022-11-17T13:56:32.668Z,96954.03
2022-11-17T13:59:02.318Z,96949.88
2022-11-17T14:01:31.526Z,96944.84
2022-11-17T14:04:20.017Z,96961.41
2022-11-17T14:06:59.518Z,96948.72
2022-11-17T14:09:30.784Z,96956.78
2022-11-17T14:11:58.827Z,96958.41
2022-11-17T14:14:33.158Z,96959.47
2022-11-17T14:17:11.781Z,96956.66
2022-11-17T14:19:39.608Z,96951.38
2022-11-17T14:22:31.050Z,96955.19
2022-11-17T14:25:00.800Z,96957.66
2022-11-17T14:27:40.675Z,96942.34
2022-11-17T14:30:13.258Z,96961.13
2022-11-17T14:32:41.037Z,96969.00
2022-11-17T14:35:10.379Z,96976.72
2022-11-17T14:37:38.243Z,96995.38
2022-11-17T14:40:10.989Z,97015.06
2022-11-17T14:42:41.287Z,96984.16
2022-11-17T14:45:10.529Z,97020.19
2022-11-17T14:47:38.153Z,97016.81
2022-11-17T14:50:06.745Z,96979.38
2022-11-17T14:52:34.522Z,96977.13
2022-11-17T14:55:02.367Z,96982.63
2022-11-17T14:57:31.568Z,96982.78
2022-11-17T14:59:59.572Z,96980.28
2022-11-17T15:02:27.269Z,96987.00
2022-11-17T15:04:55.608Z,96986.28
2022-11-17T15:07:23.919Z,96992.28
2022-11-17T15:09:51.703Z,96983.19
2022-11-17T15:12:19.371Z,96968.59
2022-11-17T15:14:49.171Z,96988.66
2022-11-17T15:17:17.250Z,96983.91
2022-11-17T15:19:45.262Z,96985.69
2022-11-17T15:22:13.012Z,96998.00
2022-11-17T15:24:40.633Z,97007.22
2022-11-17T15:27:08.669Z,97014.88
2022-11-17T15:29:36.354Z,97014.53
2022-11-17T15:32:05.586Z,97007.31
2022-11-17T15:34:33.187Z,97011.03
2022-11-17T15:37:00.788Z,97016.53
2022-11-17T15:39:28.398Z,97011.75
2022-11-17T15:41:56.001Z,97004.22
2022-11-17T15:44:23.584Z,97004.91
2022-11-17T15:46:51.210Z,96999.28
2022-11-17T15:49:20.332Z,97005.59
2022-11-17T15:51:48.003Z,96997.94
2022-11-17T15:54:20.422Z,97009.91
2022-11-17T15:56:49.062Z,97013.97
2022-11-17T15:59:16.996Z,97023.31
2022-11-17T16:01:44.913Z,97014.88
2022-11-17T16:04:14.710Z,97012.38
2022-11-17T16:06:45.167Z,97014.03
2022-11-17T16:09:13.645Z,97017.34
2022-11-17T16:11:41.637Z,97024.31
2022-11-17T16:14:09.839Z,97022.78
2022-11-17T16:16:39.279Z,97029.00
2022-11-17T16:19:07.388Z,97037.34
2022-11-17T16:21:35.302Z,97034.59
2022-11-17T16:24:05.324Z,97022.13
2022-11-17T16:26:33.180Z,97022.63
2022-11-17T16:29:02.136Z,97025.03
2022-11-17T16:31:31.850Z,97024.16
2022-11-17T16:34:01.205Z,97026.88
2022-11-17T16:36:35.969Z,97027.91
2022-11-17T16:39:06.961Z,97025.72
2022-11-17T16:41:35.872Z,97025.06
2022-11-17T16:44:07.381Z,97028.97
2022-11-17T16:46:35.030Z,97021.19
2022-11-17T16:49:03.956Z,97022.38
2022-11-17T16:51:31.623Z,97014.94
2022-11-17T16:54:02.032Z,97021.75
2022-11-17T16:56:31.491Z,97028.25
2022-11-17T16:58:59.633Z,97033.94
2022-11-17T17:01:28.596Z,97036.91
2022-11-17T17:03:57.358Z,97039.03
2022-11-17T17:06:25.225Z,97024.75
2022-11-17T17:08:56.220Z,97029.19
2022-11-17T17:11:24.172Z,97026.25
2022-11-17T17:13:53.097Z,97019.56
2022-11-17T17:16:21.347Z,97017.34
2022-11-17T17:18:49.120Z,97015.97
2022-11-17T17:21:18.076Z,97022.19
2022-11-17T17:23:46.001Z,97025.66
2022-11-17T17:26:16.769Z,97030.16
2022-11-17T17:28:45.059Z,97019.16
2022-11-17T17:31:21.063Z,97027.75
2022-11-17T17:33:49.939Z,97028.06
2022-11-17T17:36:19.305Z,97032.88
2022-11-17T17:38:53.349Z,97033.31
2022-11-17T17:41:23.898Z,97038.47
2022-11-17T17:43:56.610Z,97050.53
2022-11-17T17:46:26.302Z,97061.50
2022-11-17T17:48:53.887Z,97066.63
2022-11-17T17:51:24.851Z,97066.53
2022-11-17T17:53:52.767Z,97062.53
2022-11-17T17:56:21.940Z,97074.31
2022-11-17T17:58:50.737Z,97069.16
2022-11-17T18:01:20.479Z,97076.41
2022-11-17T18:03:50.544Z,97066.34
2022-11-17T18:06:20.180Z,97070.94
2022-11-17T18:08:48.675Z,97079.25
2022-11-17T18:11:18.147Z,97080.22
2022-11-17T18:13:47.206Z,97084.84
2022-11-17T18:16:16.492Z,97073.16
2022-11-17T18:18:45.509Z,97078.44
2022-11-17T18:21:15.376Z,97086.41
2022-11-17T18:23:43.372Z,97085.56
2022-11-17T18:26:12.668Z,97085.56
2022-11-17T18:28:40.515Z,97078.53
2022-11-17T18:31:08.889Z,97077.19
2022-11-17T18:33:37.112Z,97082.22
2022-11-17T18:36:06.617Z,97081.47
2022-11-17T18:38:36.891Z,97076.56
2022-11-17T18:41:06.407Z,97080.03
2022-11-17T18:43:34.579Z,97094.63
2022-11-17T18:46:04.240Z,97090.72
2022-11-17T18:48:33.282Z,97097.97
2022-11-17T18:51:18.764Z,97093.28
2022-11-17T18:53:48.744Z,97110.72
2022-11-17T18:56:17.917Z,97101.66
2022-11-17T18:58:45.552Z,97107.75
2022-11-17T19:01:14.777Z,97112.47
2022-11-17T19:03:44.071Z,97118.38
2022-11-17T19:06:12.567Z,97109.75
2022-11-17T19:08:40.307Z,97105.53
2022-11-17T19:11:10.653Z,97108.59
2022-11-17T19:13:40.021Z,97094.22
2022-11-17T19:16:10.103Z,97101.69
2022-11-17T19:18:37.981Z,97088.75
2022-11-17T19:21:06.730Z,97087.16
2022-11-17T19:23:34.963Z,97097.78
2022-11-17T19:26:05.241Z,97097.06
2022-11-17T19:28:34.439Z,97105.34
2022-11-17T19:31:03.175Z,97112.81
2022-11-17T19:33:32.178Z,97093.59
2022-11-17T19:36:03.875Z,97104.19
2022-11-17T19:38:33.686Z,97103.03
2022-11-17T19:41:04.883Z,97100.31
2022-11-17T19:43:34.514Z,97098.63
2022-11-17T19:46:03.907Z,97107.56
2022-11-17T19:48:32.426Z,97116.91
2022-11-17T19:51:00.888Z,97119.66
2022-11-17T19:53:29.062Z,97116.28
2022-11-17T19:55:57.053Z,97127.22
2022-11-17T19:58:24.642Z,97130.56
2022-11-17T20:00:53.687Z,97128.47
2022-11-17T20:03:21.324Z,97127.84
2022-11-17T20:05:48.958Z,97118.81
2022-11-17T20:08:16.580Z,97123.53
2022-11-17T20:10:44.307Z,97119.44
2022-11-17T20:13:11.895Z,97125.53
2022-11-17T20:15:39.574Z,97124.91
2022-11-17T20:18:08.581Z,97113.47
2022-11-17T20:20:37.548Z,97125.31
2022-11-17T20:23:05.334Z,97125.66
2022-11-17T20:25:33.011Z,97124.38
2022-11-17T20:28:00.731Z,97126.34
2022-11-17T20:30:28.496Z,97127.59
2022-11-17T20:32:56.101Z,97130.34
2022-11-17T20:35:25.094Z,97126.44
2022-11-17T20:37:52.805Z,97128.53
2022-11-17T20:40:20.403Z,97136.19
2022-11-17T20:42:48.068Z,97125.91
2022-11-17T20:45:15.895Z,97134.31
2022-11-17T20:47:43.518Z,97139.88
2022-11-17T20:50:11.109Z,97147.00
2022-11-17T20:52:40.315Z,97132.81
2022-11-17T20:55:08.799Z,97139.31
2022-11-17T20:57:36.427Z,97149.28
2022-11-17T21:00:04.800Z,97155.56
2022-11-17T21:02:32.393Z,97154.84
2022-11-17T21:04:59.988Z,97160.28
2022-11-17T21:07:27.625Z,97159.25
2022-11-17T21:09:59.446Z,97166.06
2022-11-17T21:12:27.155Z,97171.50
2022-11-17T21:14:54.720Z,97178.94
2022-11-17T21:17:39.835Z,97184.69
2022-11-17T21:20:08.148Z,97189.53
2022-11-17T21:22:35.781Z,97184.00
2022-11-17T21:25:05.310Z,97174.78
2022-11-17T21:27:32.945Z,97189.28
2022-11-17T21:30:00.520Z,97180.47
2022-11-17T21:32:28.158Z,97190.03
2022-11-17T21:34:57.359Z,97184.03
2022-11-17T21:37:27.144Z,97182.25
2022-11-17T21:39:54.890Z,97185.34
2022-11-17T21:42:23.875Z,97180.94
2022-11-17T21:44:51.473Z,97184.94
2022-11-17T21:47:20.036Z,97182.84
2022-11-17T21:49:47.663Z,97178.78
2022-11-17T21:52:15.298Z,97178.59
2022-11-17T21:54:42.904Z,97181.22
2022-11-17T21:57:10.558Z,97181.94
2022-11-17T21:59:39.555Z,97182.59
2022-11-17T22:02:07.198Z,97194.66
2022-11-17T22:04:34.838Z,97187.34
2022-11-17T22:07:02.568Z,97193.22
2022-11-17T22:09:30.340Z,97194.06
2022-11-17T22:11:58.473Z,97202.88
2022-11-17T22:14:26.155Z,97194.81
2022-11-17T22:16:56.348Z,97203.53
2022-11-17T22:19:25.488Z,97200.34
2022-11-17T22:21:54.429Z,97196.47
2022-11-17T22:24:22.161Z,97197.53
2022-11-17T22:26:51.532Z,97195.94
2022-11-17T22:29:21.068Z,97188.78
2022-11-17T22:31:49.632Z,97202.84
2022-11-17T22:34:19.549Z,97199.03
2022-11-17T22:36:47.303Z,97194.44
2022-11-17T22:39:15.325Z,97197.78
2022-11-17T22:41:43.320Z,97205.13
2022-11-17T22:44:13.825Z,97201.34
2022-11-17T22:46:43.052Z,97198.75
2022-11-17T22:49:10.939Z,97192.81
2022-11-17T22:51:57.440Z,97189.03
2022-11-17T22:54:25.058Z,97197.00
2022-11-17T22:56:52.660Z,97202.75
2022-11-17T22:59:20.811Z,97207.59
2022-11-17T23:01:48.448Z,97220.19
2022-11-17T23:04:16.392Z,97223.09
2022-11-17T23:06:45.483Z,97225.44
2022-11-17T23:09:13.862Z,97215.28
2022-11-17T23:11:42.233Z,97214.09
2022-11-17T23:14:15.214Z,97223.75
2022-11-17T23:16:43.682Z,97227.81
2022-11-17T23:19:13.648Z,97227.50
2022-11-17T23:21:41.766Z,97234.97
2022-11-17T23:24:12.820Z,97235.09
2022-11-17T23:26:41.023Z,97240.63
2022-11-17T23:29:09.283Z,97245.78
2022-11-17T23:31:36.915Z,97242.75
2022-11-17T23:34:12.562Z,97237.72
2022-11-17T23:36:41.277Z,97236.88
2022-11-17T23:39:11.022Z,97238.66
2022-11-17T23:41:38.810Z,97239.59
2022-11-17T23:44:06.795Z,97235.09
2022-11-17T23:46:34.408Z,97234.13
2022-11-17T23:49:02.121Z,97228.69
2022-11-17T23:51:30.001Z,97226.28
2022-11-17T23:53:59.671Z,97230.28
2022-11-17T23:56:29.305Z,97229.53
2022-11-17T23:58:59.624Z,97230.81
